sensor_id;sensor_type;location;lat;lon;timestamp;P1;durP1;ratioP1;P2;durP2;ratioP2
17844;SDS011;9047;53.486;10.218;2022-12-20T00:00:48;30.05;;;14.82;;
17844;SDS011;9047;53.486;10.218;2022-12-20T00:03:15;30.25;;;15.00;;
17844;SDS011;9047;53.486;10.218;2022-12-20T00:05:44;28.33;;;14.35;;
17844;SDS011;9047;53.486;10.218;2022-12-20T00:08:11;25.83;;;13.98;;
17844;SDS011;9047;53.486;10.218;2022-12-20T00:10:38;30.45;;;14.32;;
17844;SDS011;9047;53.486;10.218;2022-12-20T00:13:07;26.70;;;15.00;;
17844;SDS011;9047;53.486;10.218;2022-12-20T00:15:35;25.17;;;13.60;;
17844;SDS011;9047;53.486;10.218;2022-12-20T00:18:03;27.30;;;14.18;;
17844;SDS011;9047;53.486;10.218;2022-12-20T00:20:31;27.40;;;14.02;;
17844;SDS011;9047;53.486;10.218;2022-12-20T00:22:57;27.35;;;13.98;;
17844;SDS011;9047;53.486;10.218;2022-12-20T00:25:26;25.58;;;13.82;;
17844;SDS011;9047;53.486;10.218;2022-12-20T00:27:54;29.40;;;14.48;;
17844;SDS011;9047;53.486;10.218;2022-12-20T00:30:21;26.20;;;13.43;;
17844;SDS011;9047;53.486;10.218;2022-12-20T00:32:49;26.92;;;13.05;;
17844;SDS011;9047;53.486;10.218;2022-12-20T00:35:16;25.90;;;13.65;;
17844;SDS011;9047;53.486;10.218;2022-12-20T00:37:44;25.05;;;13.30;;
17844;SDS011;9047;53.486;10.218;2022-12-20T00:40:11;22.30;;;12.45;;
17844;SDS011;9047;53.486;10.218;2022-12-20T00:42:41;23.45;;;11.35;;
17844;SDS011;9047;53.486;10.218;2022-12-20T00:45:08;22.77;;;11.60;;
17844;SDS011;9047;53.486;10.218;2022-12-20T00:47:35;21.73;;;11.75;;
17844;SDS011;9047;53.486;10.218;2022-12-20T00:50:04;19.33;;;11.27;;
17844;SDS011;9047;53.486;10.218;2022-12-20T00:52:33;18.38;;;10.60;;
17844;SDS011;9047;53.486;10.218;2022-12-20T00:55:00;23.48;;;11.77;;
17844;SDS011;9047;53.486;10.218;2022-12-20T00:57:29;23.70;;;11.85;;
17844;SDS011;9047;53.486;10.218;2022-12-20T00:59:56;21.05;;;11.35;;
17844;SDS011;9047;53.486;10.218;2022-12-20T01:02:23;20.98;;;11.20;;
17844;SDS011;9047;53.486;10.218;2022-12-20T01:04:50;20.10;;;10.93;;
17844;SDS011;9047;53.486;10.218;2022-12-20T01:07:18;18.88;;;11.40;;
17844;SDS011;9047;53.486;10.218;2022-12-20T01:09:47;19.92;;;10.73;;
17844;SDS011;9047;53.486;10.218;2022-12-20T01:12:14;19.35;;;10.90;;
17844;SDS011;9047;53.486;10.218;2022-12-20T01:14:42;22.05;;;11.90;;
17844;SDS011;9047;53.486;10.218;2022-12-20T01:17:09;17.67;;;10.30;;
17844;SDS011;9047;53.486;10.218;2022-12-20T01:19:36;18.15;;;10.65;;
17844;SDS011;9047;53.486;10.218;2022-12-20T01:22:03;19.17;;;10.85;;
17844;SDS011;9047;53.486;10.218;2022-12-20T01:24:31;19.45;;;11.30;;
17844;SDS011;9047;53.486;10.218;2022-12-20T01:26:58;18.33;;;10.88;;
17844;SDS011;9047;53.486;10.218;2022-12-20T01:29:30;21.10;;;11.27;;
17844;SDS011;9047;53.486;10.218;2022-12-20T01:31:57;22.38;;;11.02;;
17844;SDS011;9047;53.486;10.218;2022-12-20T01:34:24;20.42;;;11.15;;
17844;SDS011;9047;53.486;10.218;2022-12-20T01:36:52;20.88;;;10.90;;
17844;SDS011;9047;53.486;10.218;2022-12-20T01:39:21;18.27;;;10.48;;
17844;SDS011;9047;53.486;10.218;2022-12-20T01:41:49;17.27;;;10.27;;
17844;SDS011;9047;53.486;10.218;2022-12-20T01:47:18;18.45;;;10.55;;
17844;SDS011;9047;53.486;10.218;2022-12-20T01:49:46;18.50;;;11.07;;
17844;SDS011;9047;53.486;10.218;2022-12-20T01:52:17;18.90;;;11.27;;
17844;SDS011;9047;53.486;10.218;2022-12-20T01:54:47;16.55;;;10.50;;
17844;SDS011;9047;53.486;10.218;2022-12-20T01:57:21;17.55;;;10.65;;
17844;SDS011;9047;53.486;10.218;2022-12-20T01:59:52;21.77;;;10.75;;
17844;SDS011;9047;53.486;10.218;2022-12-20T02:02:22;19.88;;;10.88;;
17844;SDS011;9047;53.486;10.218;2022-12-20T02:04:50;21.75;;;11.32;;
17844;SDS011;9047;53.486;10.218;2022-12-20T02:07:19;22.73;;;11.55;;
17844;SDS011;9047;53.486;10.218;2022-12-20T02:09:49;20.20;;;11.70;;
17844;SDS011;9047;53.486;10.218;2022-12-20T02:12:20;19.05;;;11.13;;
17844;SDS011;9047;53.486;10.218;2022-12-20T02:14:54;21.45;;;11.77;;
17844;SDS011;9047;53.486;10.218;2022-12-20T02:17:44;21.10;;;11.50;;
17844;SDS011;9047;53.486;10.218;2022-12-20T02:20:37;18.83;;;10.85;;
17844;SDS011;9047;53.486;10.218;2022-12-20T02:23:50;20.25;;;11.40;;
17844;SDS011;9047;53.486;10.218;2022-12-20T02:26:49;21.90;;;11.77;;
17844;SDS011;9047;53.486;10.218;2022-12-20T02:32:43;16.58;;;10.40;;
17844;SDS011;9047;53.486;10.218;2022-12-20T02:35:18;16.35;;;10.30;;
17844;SDS011;9047;53.486;10.218;2022-12-20T02:37:48;17.42;;;11.05;;
17844;SDS011;9047;53.486;10.218;2022-12-20T02:40:16;18.13;;;10.70;;
17844;SDS011;9047;53.486;10.218;2022-12-20T02:42:48;19.45;;;10.68;;
17844;SDS011;9047;53.486;10.218;2022-12-20T02:45:19;18.65;;;10.50;;
17844;SDS011;9047;53.486;10.218;2022-12-20T02:47:50;17.02;;;10.52;;
17844;SDS011;9047;53.486;10.218;2022-12-20T02:50:20;17.58;;;9.55;;
17844;SDS011;9047;53.486;10.218;2022-12-20T02:52:49;17.88;;;10.25;;
17844;SDS011;9047;53.486;10.218;2022-12-20T02:55:17;16.98;;;10.32;;
17844;SDS011;9047;53.486;10.218;2022-12-20T02:57:47;16.08;;;9.50;;
17844;SDS011;9047;53.486;10.218;2022-12-20T03:00:17;15.43;;;9.85;;
17844;SDS011;9047;53.486;10.218;2022-12-20T03:02:46;15.93;;;9.43;;
17844;SDS011;9047;53.486;10.218;2022-12-20T03:05:34;17.35;;;9.52;;
17844;SDS011;9047;53.486;10.218;2022-12-20T03:08:03;17.77;;;9.75;;
17844;SDS011;9047;53.486;10.218;2022-12-20T03:10:32;15.20;;;8.93;;
17844;SDS011;9047;53.486;10.218;2022-12-20T03:15:44;17.30;;;9.75;;
17844;SDS011;9047;53.486;10.218;2022-12-20T03:18:11;14.55;;;8.60;;
17844;SDS011;9047;53.486;10.218;2022-12-20T03:20:39;16.60;;;9.27;;
17844;SDS011;9047;53.486;10.218;2022-12-20T03:23:08;14.00;;;8.57;;
17844;SDS011;9047;53.486;10.218;2022-12-20T03:25:35;14.77;;;8.73;;
17844;SDS011;9047;53.486;10.218;2022-12-20T03:28:02;14.32;;;8.77;;
17844;SDS011;9047;53.486;10.218;2022-12-20T03:30:29;15.75;;;8.88;;
17844;SDS011;9047;53.486;10.218;2022-12-20T03:32:58;16.25;;;9.15;;
17844;SDS011;9047;53.486;10.218;2022-12-20T03:35:25;13.90;;;8.55;;
17844;SDS011;9047;53.486;10.218;2022-12-20T03:37:53;17.92;;;9.05;;
17844;SDS011;9047;53.486;10.218;2022-12-20T03:40:20;14.05;;;9.02;;
17844;SDS011;9047;53.486;10.218;2022-12-20T03:42:49;14.02;;;8.45;;
17844;SDS011;9047;53.486;10.218;2022-12-20T03:45:16;16.77;;;8.95;;
17844;SDS011;9047;53.486;10.218;2022-12-20T03:47:43;15.82;;;8.95;;
17844;SDS011;9047;53.486;10.218;2022-12-20T03:50:10;13.23;;;8.93;;
17844;SDS011;9047;53.486;10.218;2022-12-20T03:52:39;17.45;;;8.73;;
17844;SDS011;9047;53.486;10.218;2022-12-20T03:55:09;13.93;;;8.05;;
17844;SDS011;9047;53.486;10.218;2022-12-20T03:57:36;14.65;;;8.38;;
17844;SDS011;9047;53.486;10.218;2022-12-20T04:00:06;16.02;;;8.20;;
17844;SDS011;9047;53.486;10.218;2022-12-20T04:02:33;13.95;;;8.90;;
17844;SDS011;9047;53.486;10.218;2022-12-20T04:05:01;13.60;;;8.57;;
17844;SDS011;9047;53.486;10.218;2022-12-20T04:07:28;14.68;;;8.27;;
17844;SDS011;9047;53.486;10.218;2022-12-20T04:09:57;16.90;;;9.32;;
17844;SDS011;9047;53.486;10.218;2022-12-20T04:12:25;15.27;;;9.20;;
17844;SDS011;9047;53.486;10.218;2022-12-20T04:14:52;15.88;;;9.55;;
17844;SDS011;9047;53.486;10.218;2022-12-20T04:17:18;17.23;;;10.13;;
17844;SDS011;9047;53.486;10.218;2022-12-20T04:19:45;19.65;;;9.98;;
17844;SDS011;9047;53.486;10.218;2022-12-20T04:22:12;16.65;;;9.95;;
17844;SDS011;9047;53.486;10.218;2022-12-20T04:24:41;18.48;;;10.45;;
17844;SDS011;9047;53.486;10.218;2022-12-20T04:27:07;17.02;;;10.23;;
17844;SDS011;9047;53.486;10.218;2022-12-20T04:29:37;18.85;;;10.88;;
17844;SDS011;9047;53.486;10.218;2022-12-20T04:32:04;16.20;;;10.18;;
17844;SDS011;9047;53.486;10.218;2022-12-20T04:34:30;19.23;;;9.98;;
17844;SDS011;9047;53.486;10.218;2022-12-20T04:36:58;16.23;;;9.57;;
17844;SDS011;9047;53.486;10.218;2022-12-20T04:39:25;18.23;;;10.05;;
17844;SDS011;9047;53.486;10.218;2022-12-20T04:41:53;17.13;;;10.18;;
17844;SDS011;9047;53.486;10.218;2022-12-20T04:44:20;17.70;;;10.30;;
17844;SDS011;9047;53.486;10.218;2022-12-20T04:46:49;18.67;;;10.60;;
17844;SDS011;9047;53.486;10.218;2022-12-20T04:49:18;16.05;;;10.07;;
17844;SDS011;9047;53.486;10.218;2022-12-20T04:51:47;19.13;;;10.98;;
17844;SDS011;9047;53.486;10.218;2022-12-20T04:54:15;16.85;;;10.27;;
17844;SDS011;9047;53.486;10.218;2022-12-20T04:56:42;16.88;;;9.90;;
17844;SDS011;9047;53.486;10.218;2022-12-20T04:59:10;18.63;;;10.93;;
17844;SDS011;9047;53.486;10.218;2022-12-20T05:01:38;20.17;;;10.63;;
17844;SDS011;9047;53.486;10.218;2022-12-20T05:04:10;19.90;;;10.55;;
17844;SDS011;9047;53.486;10.218;2022-12-20T05:06:41;19.02;;;11.43;;
17844;SDS011;9047;53.486;10.218;2022-12-20T05:09:08;18.40;;;11.15;;
17844;SDS011;9047;53.486;10.218;2022-12-20T05:11:36;19.58;;;11.20;;
17844;SDS011;9047;53.486;10.218;2022-12-20T05:14:05;19.15;;;11.95;;
17844;SDS011;9047;53.486;10.218;2022-12-20T05:16:32;20.45;;;12.10;;
17844;SDS011;9047;53.486;10.218;2022-12-20T05:19:03;23.85;;;12.77;;
17844;SDS011;9047;53.486;10.218;2022-12-20T05:21:34;22.65;;;12.30;;
17844;SDS011;9047;53.486;10.218;2022-12-20T05:24:19;21.27;;;11.70;;
17844;SDS011;9047;53.486;10.218;2022-12-20T05:27:05;20.42;;;12.02;;
17844;SDS011;9047;53.486;10.218;2022-12-20T05:29:34;21.15;;;12.13;;
17844;SDS011;9047;53.486;10.218;2022-12-20T05:32:01;23.65;;;11.90;;
17844;SDS011;9047;53.486;10.218;2022-12-20T05:34:31;22.23;;;12.68;;
17844;SDS011;9047;53.486;10.218;2022-12-20T05:37:01;19.52;;;11.73;;
17844;SDS011;9047;53.486;10.218;2022-12-20T05:39:28;21.42;;;12.80;;
17844;SDS011;9047;53.486;10.218;2022-12-20T05:41:55;23.23;;;13.05;;
17844;SDS011;9047;53.486;10.218;2022-12-20T05:44:24;21.27;;;12.73;;
17844;SDS011;9047;53.486;10.218;2022-12-20T05:46:52;23.45;;;13.70;;
17844;SDS011;9047;53.486;10.218;2022-12-20T05:49:20;26.17;;;13.85;;
17844;SDS011;9047;53.486;10.218;2022-12-20T05:51:47;23.80;;;13.55;;
17844;SDS011;9047;53.486;10.218;2022-12-20T05:54:22;26.38;;;13.07;;
17844;SDS011;9047;53.486;10.218;2022-12-20T05:56:56;22.73;;;13.00;;
17844;SDS011;9047;53.486;10.218;2022-12-20T05:59:25;24.17;;;13.77;;
17844;SDS011;9047;53.486;10.218;2022-12-20T06:01:54;22.67;;;13.90;;
17844;SDS011;9047;53.486;10.218;2022-12-20T06:04:22;25.60;;;14.40;;
17844;SDS011;9047;53.486;10.218;2022-12-20T06:06:49;25.58;;;13.65;;
17844;SDS011;9047;53.486;10.218;2022-12-20T06:09:16;26.00;;;13.65;;
17844;SDS011;9047;53.486;10.218;2022-12-20T06:11:44;25.05;;;13.88;;
17844;SDS011;9047;53.486;10.218;2022-12-20T06:14:13;25.63;;;13.27;;
17844;SDS011;9047;53.486;10.218;2022-12-20T06:16:40;25.13;;;14.38;;
17844;SDS011;9047;53.486;10.218;2022-12-20T06:19:07;25.92;;;13.60;;
17844;SDS011;9047;53.486;10.218;2022-12-20T06:21:34;24.58;;;14.25;;
17844;SDS011;9047;53.486;10.218;2022-12-20T06:24:02;24.98;;;13.32;;
17844;SDS011;9047;53.486;10.218;2022-12-20T06:26:34;23.50;;;13.23;;
17844;SDS011;9047;53.486;10.218;2022-12-20T06:29:08;26.83;;;13.70;;
17844;SDS011;9047;53.486;10.218;2022-12-20T06:31:38;32.28;;;16.60;;
17844;SDS011;9047;53.486;10.218;2022-12-20T06:34:07;24.23;;;13.23;;
17844;SDS011;9047;53.486;10.218;2022-12-20T06:36:48;23.55;;;13.18;;
17844;SDS011;9047;53.486;10.218;2022-12-20T06:39:16;24.95;;;13.32;;
17844;SDS011;9047;53.486;10.218;2022-12-20T06:41:44;24.58;;;13.07;;
17844;SDS011;9047;53.486;10.218;2022-12-20T06:44:14;23.70;;;13.57;;
17844;SDS011;9047;53.486;10.218;2022-12-20T06:46:43;25.52;;;14.05;;
17844;SDS011;9047;53.486;10.218;2022-12-20T06:49:10;25.33;;;13.07;;
17844;SDS011;9047;53.486;10.218;2022-12-20T06:51:37;25.50;;;13.40;;
17844;SDS011;9047;53.486;10.218;2022-12-20T06:54:04;28.40;;;14.95;;
17844;SDS011;9047;53.486;10.218;2022-12-20T06:56:34;26.83;;;15.05;;
17844;SDS011;9047;53.486;10.218;2022-12-20T06:59:01;26.80;;;14.60;;
17844;SDS011;9047;53.486;10.218;2022-12-20T07:01:29;28.00;;;14.60;;
17844;SDS011;9047;53.486;10.218;2022-12-20T07:03:57;25.83;;;14.73;;
17844;SDS011;9047;53.486;10.218;2022-12-20T07:06:24;25.90;;;12.82;;
17844;SDS011;9047;53.486;10.218;2022-12-20T07:08:54;24.40;;;13.55;;
17844;SDS011;9047;53.486;10.218;2022-12-20T07:11:22;24.90;;;14.05;;
17844;SDS011;9047;53.486;10.218;2022-12-20T07:13:53;26.85;;;14.73;;
17844;SDS011;9047;53.486;10.218;2022-12-20T07:16:21;26.63;;;14.45;;
17844;SDS011;9047;53.486;10.218;2022-12-20T07:18:49;27.88;;;14.35;;
17844;SDS011;9047;53.486;10.218;2022-12-20T07:21:17;25.60;;;13.77;;
17844;SDS011;9047;53.486;10.218;2022-12-20T07:23:44;24.58;;;14.38;;
17844;SDS011;9047;53.486;10.218;2022-12-20T07:26:15;28.13;;;14.80;;
17844;SDS011;9047;53.486;10.218;2022-12-20T07:28:42;25.65;;;15.00;;
17844;SDS011;9047;53.486;10.218;2022-12-20T07:31:12;30.05;;;16.65;;
17844;SDS011;9047;53.486;10.218;2022-12-20T07:33:39;26.10;;;15.40;;
17844;SDS011;9047;53.486;10.218;2022-12-20T07:36:09;27.33;;;14.90;;
17844;SDS011;9047;53.486;10.218;2022-12-20T07:38:37;29.38;;;15.35;;
17844;SDS011;9047;53.486;10.218;2022-12-20T07:41:06;30.00;;;15.38;;
17844;SDS011;9047;53.486;10.218;2022-12-20T07:43:36;29.65;;;16.00;;
17844;SDS011;9047;53.486;10.218;2022-12-20T07:46:04;26.77;;;15.30;;
17844;SDS011;9047;53.486;10.218;2022-12-20T07:48:32;25.83;;;14.60;;
17844;SDS011;9047;53.486;10.218;2022-12-20T07:51:01;31.58;;;16.33;;
17844;SDS011;9047;53.486;10.218;2022-12-20T07:53:33;28.33;;;14.85;;
17844;SDS011;9047;53.486;10.218;2022-12-20T07:56:05;29.05;;;15.38;;
17844;SDS011;9047;53.486;10.218;2022-12-20T07:58:33;26.30;;;15.25;;
17844;SDS011;9047;53.486;10.218;2022-12-20T08:01:04;28.30;;;15.23;;
17844;SDS011;9047;53.486;10.218;2022-12-20T08:03:34;29.15;;;14.98;;
17844;SDS011;9047;53.486;10.218;2022-12-20T08:06:06;25.60;;;14.35;;
17844;SDS011;9047;53.486;10.218;2022-12-20T08:08:37;22.40;;;14.00;;
17844;SDS011;9047;53.486;10.218;2022-12-20T08:11:09;24.80;;;14.52;;
17844;SDS011;9047;53.486;10.218;2022-12-20T08:13:38;28.55;;;17.08;;
17844;SDS011;9047;53.486;10.218;2022-12-20T08:16:08;26.67;;;15.45;;
17844;SDS011;9047;53.486;10.218;2022-12-20T08:18:35;27.85;;;15.23;;
17844;SDS011;9047;53.486;10.218;2022-12-20T08:21:02;26.35;;;15.00;;
17844;SDS011;9047;53.486;10.218;2022-12-20T08:23:33;27.63;;;15.57;;
17844;SDS011;9047;53.486;10.218;2022-12-20T08:26:01;26.83;;;15.00;;
17844;SDS011;9047;53.486;10.218;2022-12-20T08:28:30;29.38;;;15.25;;
17844;SDS011;9047;53.486;10.218;2022-12-20T08:31:01;30.35;;;14.73;;
17844;SDS011;9047;53.486;10.218;2022-12-20T08:33:30;26.70;;;15.00;;
17844;SDS011;9047;53.486;10.218;2022-12-20T08:35:59;29.98;;;15.82;;
17844;SDS011;9047;53.486;10.218;2022-12-20T08:38:28;26.58;;;14.15;;
17844;SDS011;9047;53.486;10.218;2022-12-20T08:41:02;28.27;;;14.80;;
17844;SDS011;9047;53.486;10.218;2022-12-20T08:43:31;25.17;;;14.25;;
17844;SDS011;9047;53.486;10.218;2022-12-20T08:45:59;23.42;;;13.68;;
17844;SDS011;9047;53.486;10.218;2022-12-20T08:48:29;22.33;;;13.23;;
17844;SDS011;9047;53.486;10.218;2022-12-20T08:51:08;26.60;;;14.20;;
17844;SDS011;9047;53.486;10.218;2022-12-20T08:53:36;23.08;;;13.73;;
17844;SDS011;9047;53.486;10.218;2022-12-20T08:56:08;22.52;;;13.93;;
17844;SDS011;9047;53.486;10.218;2022-12-20T08:58:37;24.52;;;14.35;;
17844;SDS011;9047;53.486;10.218;2022-12-20T09:01:07;25.52;;;13.73;;
17844;SDS011;9047;53.486;10.218;2022-12-20T09:03:39;22.50;;;13.02;;
17844;SDS011;9047;53.486;10.218;2022-12-20T09:06:08;24.60;;;13.82;;
17844;SDS011;9047;53.486;10.218;2022-12-20T09:08:37;22.73;;;13.05;;
17844;SDS011;9047;53.486;10.218;2022-12-20T09:11:12;22.38;;;13.75;;
17844;SDS011;9047;53.486;10.218;2022-12-20T09:13:43;23.10;;;13.40;;
17844;SDS011;9047;53.486;10.218;2022-12-20T09:16:13;26.05;;;13.57;;
17844;SDS011;9047;53.486;10.218;2022-12-20T09:18:48;23.45;;;13.65;;
17844;SDS011;9047;53.486;10.218;2022-12-20T09:21:27;23.70;;;13.70;;
17844;SDS011;9047;53.486;10.218;2022-12-20T09:23:56;23.77;;;13.82;;
17844;SDS011;9047;53.486;10.218;2022-12-20T09:26:25;21.40;;;13.00;;
17844;SDS011;9047;53.486;10.218;2022-12-20T09:28:53;22.95;;;13.45;;
17844;SDS011;9047;53.486;10.218;2022-12-20T09:31:23;22.85;;;13.23;;
17844;SDS011;9047;53.486;10.218;2022-12-20T09:33:52;20.50;;;12.90;;
17844;SDS011;9047;53.486;10.218;2022-12-20T09:36:22;23.17;;;13.52;;
17844;SDS011;9047;53.486;10.218;2022-12-20T09:38:51;23.58;;;13.20;;
17844;SDS011;9047;53.486;10.218;2022-12-20T09:41:23;20.33;;;12.45;;
17844;SDS011;9047;53.486;10.218;2022-12-20T09:43:56;20.60;;;12.98;;
17844;SDS011;9047;53.486;10.218;2022-12-20T09:46:24;25.13;;;13.80;;
17844;SDS011;9047;53.486;10.218;2022-12-20T09:48:52;23.85;;;13.85;;
17844;SDS011;9047;53.486;10.218;2022-12-20T09:51:24;27.45;;;17.17;;
17844;SDS011;9047;53.486;10.218;2022-12-20T09:54:15;29.17;;;16.23;;
17844;SDS011;9047;53.486;10.218;2022-12-20T09:56:57;33.88;;;18.15;;
17844;SDS011;9047;53.486;10.218;2022-12-20T09:59:28;22.20;;;12.95;;
17844;SDS011;9047;53.486;10.218;2022-12-20T10:02:01;19.45;;;12.00;;
17844;SDS011;9047;53.486;10.218;2022-12-20T10:04:34;21.38;;;12.25;;
17844;SDS011;9047;53.486;10.218;2022-12-20T10:07:09;20.85;;;12.25;;
17844;SDS011;9047;53.486;10.218;2022-12-20T10:12:55;15.32;;;10.27;;
17844;SDS011;9047;53.486;10.218;2022-12-20T10:15:32;16.33;;;10.18;;
17844;SDS011;9047;53.486;10.218;2022-12-20T10:18:16;17.60;;;10.00;;
17844;SDS011;9047;53.486;10.218;2022-12-20T10:20:58;20.02;;;11.65;;
17844;SDS011;9047;53.486;10.218;2022-12-20T10:23:34;21.33;;;11.40;;
17844;SDS011;9047;53.486;10.218;2022-12-20T10:26:10;24.20;;;13.05;;
17844;SDS011;9047;53.486;10.218;2022-12-20T10:28:40;29.00;;;15.13;;
17844;SDS011;9047;53.486;10.218;2022-12-20T10:31:10;25.95;;;13.10;;
17844;SDS011;9047;53.486;10.218;2022-12-20T10:33:40;25.90;;;13.35;;
17844;SDS011;9047;53.486;10.218;2022-12-20T10:36:20;22.17;;;12.52;;
17844;SDS011;9047;53.486;10.218;2022-12-20T10:38:51;23.67;;;12.55;;
17844;SDS011;9047;53.486;10.218;2022-12-20T10:41:22;17.73;;;9.90;;
17844;SDS011;9047;53.486;10.218;2022-12-20T10:43:53;14.88;;;9.35;;
17844;SDS011;9047;53.486;10.218;2022-12-20T10:46:33;16.80;;;9.35;;
17844;SDS011;9047;53.486;10.218;2022-12-20T10:49:21;14.40;;;8.77;;
17844;SDS011;9047;53.486;10.218;2022-12-20T10:51:59;17.73;;;10.30;;
17844;SDS011;9047;53.486;10.218;2022-12-20T10:54:35;17.15;;;9.48;;
17844;SDS011;9047;53.486;10.218;2022-12-20T10:57:12;16.60;;;9.80;;
17844;SDS011;9047;53.486;10.218;2022-12-20T10:59:47;16.67;;;9.80;;
17844;SDS011;9047;53.486;10.218;2022-12-20T11:02:24;20.42;;;10.68;;
17844;SDS011;9047;53.486;10.218;2022-12-20T11:04:56;18.83;;;10.60;;
17844;SDS011;9047;53.486;10.218;2022-12-20T11:07:26;27.95;;;13.68;;
17844;SDS011;9047;53.486;10.218;2022-12-20T11:09:57;22.35;;;11.77;;
17844;SDS011;9047;53.486;10.218;2022-12-20T11:12:25;22.92;;;11.98;;
17844;SDS011;9047;53.486;10.218;2022-12-20T11:17:48;19.00;;;11.68;;
17844;SDS011;9047;53.486;10.218;2022-12-20T11:20:24;22.05;;;11.80;;
17844;SDS011;9047;53.486;10.218;2022-12-20T11:23:09;17.83;;;10.18;;
17844;SDS011;9047;53.486;10.218;2022-12-20T11:28:48;17.00;;;10.32;;
17844;SDS011;9047;53.486;10.218;2022-12-20T11:31:35;18.30;;;11.93;;
17844;SDS011;9047;53.486;10.218;2022-12-20T11:34:21;14.07;;;9.95;;
17844;SDS011;9047;53.486;10.218;2022-12-20T11:37:03;14.82;;;10.25;;
17844;SDS011;9047;53.486;10.218;2022-12-20T11:42:51;15.50;;;10.48;;
17844;SDS011;9047;53.486;10.218;2022-12-20T11:45:30;12.45;;;8.95;;
17844;SDS011;9047;53.486;10.218;2022-12-20T11:48:18;13.93;;;8.80;;
17844;SDS011;9047;53.486;10.218;2022-12-20T11:51:17;12.93;;;7.90;;
17844;SDS011;9047;53.486;10.218;2022-12-20T11:53:50;14.45;;;8.73;;
17844;SDS011;9047;53.486;10.218;2022-12-20T11:56:24;11.85;;;8.35;;
17844;SDS011;9047;53.486;10.218;2022-12-20T11:58:59;12.23;;;8.38;;
17844;SDS011;9047;53.486;10.218;2022-12-20T12:01:32;11.88;;;8.35;;
17844;SDS011;9047;53.486;10.218;2022-12-20T12:04:08;13.48;;;8.25;;
17844;SDS011;9047;53.486;10.218;2022-12-20T12:06:45;14.00;;;8.55;;
17844;SDS011;9047;53.486;10.218;2022-12-20T12:09:21;12.38;;;7.97;;
17844;SDS011;9047;53.486;10.218;2022-12-20T12:11:55;12.50;;;8.10;;
17844;SDS011;9047;53.486;10.218;2022-12-20T12:14:32;15.05;;;8.25;;
17844;SDS011;9047;53.486;10.218;2022-12-20T12:17:07;13.45;;;8.15;;
17844;SDS011;9047;53.486;10.218;2022-12-20T12:19:42;13.88;;;7.85;;
17844;SDS011;9047;53.486;10.218;2022-12-20T12:22:15;12.25;;;7.65;;
17844;SDS011;9047;53.486;10.218;2022-12-20T12:24:48;14.45;;;8.80;;
17844;SDS011;9047;53.486;10.218;2022-12-20T12:27:26;12.75;;;8.60;;
17844;SDS011;9047;53.486;10.218;2022-12-20T12:29:54;12.82;;;7.82;;
17844;SDS011;9047;53.486;10.218;2022-12-20T12:32:28;11.80;;;7.85;;
17844;SDS011;9047;53.486;10.218;2022-12-20T12:35:04;14.10;;;7.60;;
17844;SDS011;9047;53.486;10.218;2022-12-20T12:37:44;11.82;;;7.35;;
17844;SDS011;9047;53.486;10.218;2022-12-20T12:40:56;13.07;;;7.95;;
17844;SDS011;9047;53.486;10.218;2022-12-20T12:43:46;12.60;;;7.72;;
17844;SDS011;9047;53.486;10.218;2022-12-20T12:46:17;11.88;;;7.57;;
17844;SDS011;9047;53.486;10.218;2022-12-20T12:48:53;16.02;;;8.05;;
17844;SDS011;9047;53.486;10.218;2022-12-20T12:51:25;13.82;;;7.82;;
17844;SDS011;9047;53.486;10.218;2022-12-20T12:54:02;12.07;;;7.82;;
17844;SDS011;9047;53.486;10.218;2022-12-20T12:56:49;13.57;;;8.02;;
17844;SDS011;9047;53.486;10.218;2022-12-20T12:59:21;12.05;;;7.88;;
17844;SDS011;9047;53.486;10.218;2022-12-20T13:02:32;13.65;;;8.15;;
17844;SDS011;9047;53.486;10.218;2022-12-20T13:08:02;13.52;;;7.65;;
17844;SDS011;9047;53.486;10.218;2022-12-20T13:13:29;12.10;;;7.88;;
17844;SDS011;9047;53.486;10.218;2022-12-20T13:19:10;10.00;;;6.93;;
17844;SDS011;9047;53.486;10.218;2022-12-20T13:21:39;11.30;;;7.20;;
17844;SDS011;9047;53.486;10.218;2022-12-20T13:27:26;13.13;;;7.32;;
17844;SDS011;9047;53.486;10.218;2022-12-20T13:29:58;15.48;;;9.68;;
17844;SDS011;9047;53.486;10.218;2022-12-20T13:32:53;12.98;;;7.30;;
17844;SDS011;9047;53.486;10.218;2022-12-20T13:36:01;18.10;;;9.88;;
17844;SDS011;9047;53.486;10.218;2022-12-20T13:38:56;13.52;;;8.10;;
17844;SDS011;9047;53.486;10.218;2022-12-20T13:41:37;18.13;;;9.95;;
17844;SDS011;9047;53.486;10.218;2022-12-20T13:50:16;12.30;;;7.18;;
17844;SDS011;9047;53.486;10.218;2022-12-20T13:52:55;13.98;;;7.70;;
17844;SDS011;9047;53.486;10.218;2022-12-20T13:55:31;14.32;;;7.43;;
17844;SDS011;9047;53.486;10.218;2022-12-20T13:58:05;8.75;;;6.18;;
17844;SDS011;9047;53.486;10.218;2022-12-20T14:00:37;12.65;;;6.95;;
17844;SDS011;9047;53.486;10.218;2022-12-20T14:03:06;11.65;;;6.25;;
17844;SDS011;9047;53.486;10.218;2022-12-20T14:05:44;12.75;;;6.88;;
17844;SDS011;9047;53.486;10.218;2022-12-20T14:08:13;13.18;;;7.30;;
17844;SDS011;9047;53.486;10.218;2022-12-20T14:10:44;11.88;;;7.65;;
17844;SDS011;9047;53.486;10.218;2022-12-20T14:13:23;17.88;;;9.15;;
17844;SDS011;9047;53.486;10.218;2022-12-20T14:15:51;11.07;;;7.10;;
17844;SDS011;9047;53.486;10.218;2022-12-20T14:18:21;10.75;;;6.68;;
17844;SDS011;9047;53.486;10.218;2022-12-20T14:20:50;10.77;;;6.53;;
17844;SDS011;9047;53.486;10.218;2022-12-20T14:23:21;11.70;;;6.78;;
17844;SDS011;9047;53.486;10.218;2022-12-20T14:25:50;11.88;;;6.93;;
17844;SDS011;9047;53.486;10.218;2022-12-20T14:28:34;10.88;;;6.63;;
17844;SDS011;9047;53.486;10.218;2022-12-20T14:31:04;9.88;;;6.10;;
17844;SDS011;9047;53.486;10.218;2022-12-20T14:33:35;9.55;;;5.95;;
17844;SDS011;9047;53.486;10.218;2022-12-20T14:36:17;10.82;;;6.07;;
17844;SDS011;9047;53.486;10.218;2022-12-20T14:38:46;10.45;;;6.00;;
17844;SDS011;9047;53.486;10.218;2022-12-20T14:41:27;9.65;;;6.30;;
17844;SDS011;9047;53.486;10.218;2022-12-20T14:44:15;10.38;;;6.00;;
17844;SDS011;9047;53.486;10.218;2022-12-20T14:46:48;9.18;;;6.20;;
17844;SDS011;9047;53.486;10.218;2022-12-20T14:49:19;11.23;;;7.20;;
17844;SDS011;9047;53.486;10.218;2022-12-20T14:51:50;8.20;;;5.75;;
17844;SDS011;9047;53.486;10.218;2022-12-20T14:54:21;11.15;;;5.93;;
17844;SDS011;9047;53.486;10.218;2022-12-20T14:56:56;10.65;;;6.22;;
17844;SDS011;9047;53.486;10.218;2022-12-20T14:59:28;12.98;;;6.15;;
17844;SDS011;9047;53.486;10.218;2022-12-20T15:01:56;8.32;;;5.57;;
17844;SDS011;9047;53.486;10.218;2022-12-20T15:04:45;9.07;;;5.97;;
17844;SDS011;9047;53.486;10.218;2022-12-20T15:07:27;8.23;;;5.53;;
17844;SDS011;9047;53.486;10.218;2022-12-20T15:09:57;10.65;;;6.20;;
17844;SDS011;9047;53.486;10.218;2022-12-20T15:12:25;10.15;;;5.72;;
17844;SDS011;9047;53.486;10.218;2022-12-20T15:14:55;11.85;;;6.25;;
17844;SDS011;9047;53.486;10.218;2022-12-20T15:17:24;10.93;;;6.32;;
17844;SDS011;9047;53.486;10.218;2022-12-20T15:19:53;15.25;;;6.43;;
17844;SDS011;9047;53.486;10.218;2022-12-20T15:22:27;9.65;;;6.70;;
17844;SDS011;9047;53.486;10.218;2022-12-20T15:24:54;12.20;;;6.93;;
17844;SDS011;9047;53.486;10.218;2022-12-20T15:27:22;10.20;;;6.63;;
17844;SDS011;9047;53.486;10.218;2022-12-20T15:29:50;12.20;;;6.50;;
17844;SDS011;9047;53.486;10.218;2022-12-20T15:32:20;11.05;;;6.45;;